Time;durP1;ratioP1;P1;durP2;ratioP2;P2;SDS_P1;SDS_P2;PMS_P1;PMS_P2;Temp;Humidity;BMP_temperature;BMP_pressure;BME280_temperature;BME280_humidity;BME280_pressure;Samples;Min_cycle;Max_cycle;Signal;HPM_P1;HPM_P2
2023/04/14 00:01:55;;;;;;;2.83;1.90;;;7.60;99.90;;;;;;4175283;28;20454;-75
2023/04/14 00:04:02;;;;;;;3.10;2.00;;;7.60;99.90;;;;;;4176782;28;20813;-75
2023/04/14 00:06:09;;;;;;;4.10;2.30;;;7.60;99.90;;;;;;4173129;28;20198;-74
2023/04/14 00:08:12;;;;;;;5.93;2.20;;;7.60;99.90;;;;;;4173347;28;20862;-75
2023/04/14 00:10:18;;;;;;;4.67;2.27;;;7.60;99.90;;;;;;4173569;28;20229;-74
2023/04/14 00:12:22;;;;;;;3.10;1.87;;;7.60;99.90;;;;;;4174183;28;20802;-74
2023/04/14 00:14:31;;;;;;;3.83;2.60;;;7.60;99.90;;;;;;4174290;28;20450;-75
2023/04/14 00:16:35;;;;;;;4.43;2.10;;;7.60;99.90;;;;;;4173314;28;20459;-75
2023/04/14 00:18:38;;;;;;;5.30;2.20;;;7.60;99.90;;;;;;4174578;28;20480;-74
2023/04/14 00:20:47;;;;;;;3.53;2.13;;;7.60;99.90;;;;;;4176459;28;20448;-74
2023/04/14 00:22:49;;;;;;;3.77;2.20;;;7.60;99.90;;;;;;4176660;28;20206;-74
2023/04/14 00:24:52;;;;;;;3.53;2.40;;;7.70;99.90;;;;;;4167987;28;20950;-74
2023/04/14 00:26:55;;;;;;;2.77;2.13;;;7.60;99.90;;;;;;4175284;28;20492;-75
2023/04/14 00:28:59;;;;;;;4.53;1.93;;;7.60;99.90;;;;;;4172669;28;20452;-75
2023/04/14 00:31:01;;;;;;;4.30;2.17;;;7.60;99.90;;;;;;4170438;28;20485;-74
2023/04/14 00:33:04;;;;;;;3.23;2.10;;;7.60;99.90;;;;;;4175741;28;20453;-75
2023/04/14 00:35:07;;;;;;;3.07;2.10;;;7.60;99.90;;;;;;4175865;28;20458;-74
2023/04/14 00:37:09;;;;;;;3.33;2.07;;;7.60;99.90;;;;;;4178257;28;20536;-74
2023/04/14 00:39:11;;;;;;;4.50;2.43;;;7.50;99.90;;;;;;4177101;28;20463;-74
2023/04/14 00:41:13;;;;;;;4.80;2.73;;;7.50;99.90;;;;;;4177561;28;20475;-75
2023/04/14 00:43:18;;;;;;;5.97;2.60;;;7.50;99.90;;;;;;4174164;28;20548;-73
2023/04/14 00:45:24;;;;;;;3.33;2.17;;;7.50;99.90;;;;;;4176532;28;20469;-74
2023/04/14 00:47:27;;;;;;;3.93;2.10;;;7.40;99.90;;;;;;4176355;28;20583;-75
2023/04/14 00:49:29;;;;;;;3.97;2.40;;;7.40;99.90;;;;;;4177459;28;20450;-75
2023/04/14 00:51:31;;;;;;;3.53;2.17;;;7.40;99.90;;;;;;4176524;28;20493;-75
2023/04/14 00:53:36;;;;;;;3.50;2.50;;;7.40;99.90;;;;;;4176138;28;20569;-74
2023/04/14 00:55:40;;;;;;;5.03;2.67;;;7.30;99.90;;;;;;4175902;28;20954;-74
2023/04/14 00:57:41;;;;;;;5.97;2.83;;;7.40;99.90;;;;;;4176892;28;21033;-75
2023/04/14 00:59:43;;;;;;;4.50;2.60;;;7.30;99.90;;;;;;4178946;28;20954;-73
2023/04/14 01:01:48;;;;;;;5.00;2.13;;;7.30;99.90;;;;;;4182101;28;20448;-73
2023/04/14 01:03:50;;;;;;;5.03;2.50;;;7.50;99.90;;;;;;4179726;28;20460;-73
2023/04/14 01:05:52;;;;;;;6.20;2.47;;;7.30;99.90;;;;;;4180520;28;20471;-73
2023/04/14 01:07:54;;;;;;;3.40;2.40;;;7.30;99.90;;;;;;4174554;28;20577;-73
2023/04/14 01:09:57;;;;;;;4.83;2.67;;;7.30;99.90;;;;;;4180462;28;20504;-73
2023/04/14 01:12:06;;;;;;;3.83;2.50;;;7.30;99.90;;;;;;4185203;28;21088;-73
2023/04/14 01:14:13;;;;;;;6.00;2.50;;;7.30;99.90;;;;;;4180693;28;20936;-73
2023/04/14 01:16:20;;;;;;;4.00;2.40;;;7.30;99.90;;;;;;4176906;28;20514;-73
2023/04/14 01:18:32;;;;;;;4.47;2.57;;;7.30;99.90;;;;;;4173422;28;20491;-73
2023/04/14 01:20:40;;;;;;;4.00;2.33;;;7.30;99.90;;;;;;4182389;28;20445;-73
2023/04/14 01:22:52;;;;;;;6.00;2.77;;;7.20;99.90;;;;;;4180851;28;20464;-73
2023/04/14 01:25:13;;;;;;;4.40;2.43;;;7.20;99.90;;;;;;4171870;28;20471;-73
2023/04/14 01:27:33;;;;;;;5.17;2.20;;;7.30;99.90;;;;;;4173040;28;20852;-73
2023/04/14 01:29:51;;;;;;;5.87;2.90;;;7.20;99.90;;;;;;4174513;28;20467;-73
2023/04/14 01:32:01;;;;;;;3.63;2.53;;;7.20;99.90;;;;;;4179640;28;20982;-73
2023/04/14 01:34:11;;;;;;;4.90;2.57;;;7.20;99.90;;;;;;4180847;28;20448;-73
2023/04/14 01:36:16;;;;;;;4.17;2.40;;;7.20;99.90;;;;;;4173748;28;20469;-73
2023/04/14 01:38:26;;;;;;;4.03;2.50;;;7.20;99.90;;;;;;4177213;28;20496;-74
2023/04/14 01:40:30;;;;;;;3.10;2.07;;;7.20;99.90;;;;;;4178689;28;20563;-73
2023/04/14 01:42:35;;;;;;;6.80;2.40;;;7.20;99.90;;;;;;4175970;28;20469;-73
2023/04/14 01:44:40;;;;;;;4.13;2.37;;;7.20;99.90;;;;;;4176375;28;20461;-73
2023/04/14 01:46:44;;;;;;;6.33;2.27;;;7.20;99.90;;;;;;4177654;28;20442;-73
2023/04/14 01:48:49;;;;;;;4.57;2.40;;;7.20;99.90;;;;;;4175917;28;20504;-73
2023/04/14 01:50:51;;;;;;;2.77;2.10;;;7.20;99.90;;;;;;4174255;28;20487;-73
2023/04/14 01:52:54;;;;;;;4.20;2.33;;;7.20;99.90;;;;;;4180358;28;20488;-73
2023/04/14 01:54:57;;;;;;;4.53;2.03;;;7.20;99.90;;;;;;4180497;28;20552;-73
2023/04/14 01:57:01;;;;;;;3.33;2.20;;;7.20;99.90;;;;;;4179668;28;20455;-73
2023/04/14 01:59:05;;;;;;;3.87;2.40;;;7.20;99.90;;;;;;4181252;28;20453;-74
2023/04/14 02:01:07;;;;;;;4.07;2.23;;;7.10;99.90;;;;;;4170521;28;20481;-73
2023/04/14 02:03:09;;;;;;;4.13;2.10;;;7.20;99.90;;;;;;4175824;28;20552;-73
2023/04/14 02:05:13;;;;;;;4.73;2.60;;;7.20;99.90;;;;;;4175119;28;20457;-73
2023/04/14 02:07:17;;;;;;;3.60;2.00;;;7.10;99.90;;;;;;4173635;28;20456;-73
2023/04/14 02:09:20;;;;;;;3.10;2.10;;;7.20;99.90;;;;;;4173958;28;20962;-73
2023/04/14 02:11:23;;;;;;;4.43;2.43;;;7.10;99.90;;;;;;4174472;28;20504;-73
2023/04/14 02:13:26;;;;;;;6.03;2.40;;;7.20;99.90;;;;;;4174986;28;20464;-73
2023/04/14 02:15:30;;;;;;;4.13;2.23;;;7.20;99.90;;;;;;4175821;28;20469;-73
2023/04/14 02:17:34;;;;;;;3.47;2.43;;;7.10;99.90;;;;;;4181675;28;20566;-73
2023/04/14 02:19:36;;;;;;;3.87;2.50;;;7.20;99.90;;;;;;4177835;28;20468;-73
2023/04/14 02:21:41;;;;;;;2.67;2.10;;;7.10;99.90;;;;;;4178154;28;20457;-73
2023/04/14 02:23:43;;;;;;;3.70;2.03;;;7.10;99.90;;;;;;4179900;28;20481;-73
2023/04/14 02:25:51;;;;;;;4.97;2.30;;;7.10;99.90;;;;;;4168039;28;20465;-73
2023/04/14 02:27:56;;;;;;;3.97;2.30;;;7.10;99.90;;;;;;4177188;28;20990;-73
2023/04/14 02:29:59;;;;;;;6.70;2.33;;;7.10;99.90;;;;;;4178719;28;20471;-74
2023/04/14 02:32:05;;;;;;;7.23;2.60;;;7.00;99.90;;;;;;4170450;28;20485;-73
2023/04/14 02:34:11;;;;;;;3.87;2.37;;;7.00;99.90;;;;;;4172383;28;21037;-73
2023/04/14 02:36:17;;;;;;;3.87;2.50;;;7.00;99.90;;;;;;4178390;28;20487;-73
2023/04/14 02:38:23;;;;;;;4.63;2.97;;;7.00;99.90;;;;;;4179175;28;21048;-73
2023/04/14 02:40:29;;;;;;;3.47;2.70;;;7.00;99.90;;;;;;4175469;28;20951;-74
2023/04/14 02:42:34;;;;;;;4.93;3.00;;;7.00;99.90;;;;;;4174142;28;20865;-75
2023/04/14 02:44:42;;;;;;;6.17;3.40;;;7.00;99.90;;;;;;4178533;28;21084;-75
2023/04/14 02:46:50;;;;;;;4.70;2.83;;;7.00;99.90;;;;;;4178245;28;20831;-75
2023/04/14 02:48:53;;;;;;;5.70;2.47;;;7.00;99.90;;;;;;4177697;28;20863;-75
2023/04/14 02:50:57;;;;;;;3.83;2.47;;;7.00;99.90;;;;;;4176132;28;20491;-75
2023/04/14 02:53:00;;;;;;;5.67;3.17;;;7.00;99.90;;;;;;4173253;28;20460;-75
2023/04/14 02:55:05;;;;;;;6.13;2.77;;;7.00;99.90;;;;;;4170139;28;20966;-74
2023/04/14 02:57:08;;;;;;;3.10;2.37;;;7.00;99.90;;;;;;4171386;28;20551;-75
2023/04/14 02:59:10;;;;;;;5.27;2.67;;;7.00;99.90;;;;;;4171178;28;20541;-73
2023/04/14 03:01:12;;;;;;;3.43;2.30;;;6.90;99.90;;;;;;4180375;28;20459;-73
2023/04/14 03:03:17;;;;;;;4.13;2.63;;;7.00;99.90;;;;;;4173349;28;20833;-73
2023/04/14 03:05:20;;;;;;;6.87;2.80;;;6.90;99.90;;;;;;4178945;28;20519;-73
2023/04/14 03:07:23;;;;;;;4.90;2.60;;;6.90;99.90;;;;;;4172997;28;20930;-73
2023/04/14 03:09:26;;;;;;;6.77;2.73;;;6.90;99.90;;;;;;4180041;28;20557;-73
2023/04/14 03:11:30;;;;;;;4.67;2.93;;;6.90;99.90;;;;;;4180008;28;20592;-73
2023/04/14 03:13:35;;;;;;;4.43;3.07;;;6.90;99.90;;;;;;4174840;28;20983;-73
2023/04/14 03:15:38;;;;;;;5.03;3.00;;;6.90;99.90;;;;;;4175890;28;20505;-73
2023/04/14 03:17:41;;;;;;;5.90;2.70;;;6.90;99.90;;;;;;4177580;28;20572;-73
2023/04/14 03:19:47;;;;;;;3.73;2.80;;;6.90;99.90;;;;;;4174451;28;20469;-74
2023/04/14 03:21:50;;;;;;;5.27;2.80;;;6.90;99.90;;;;;;4175883;28;20460;-73
2023/04/14 03:23:54;;;;;;;5.17;2.73;;;6.90;99.90;;;;;;4176445;28;20470;-73
2023/04/14 03:25:58;;;;;;;6.27;2.97;;;6.90;99.90;;;;;;4178276;28;20471;-73
2023/04/14 03:28:03;;;;;;;3.93;2.80;;;6.90;99.90;;;;;;4173293;28;20587;-74
2023/04/14 03:30:07;;;;;;;5.90;3.07;;;6.80;99.90;;;;;;4175907;28;20484;-74
2023/04/14 03:32:10;;;;;;;4.83;2.70;;;6.80;99.90;;;;;;4175798;28;20511;-73
2023/04/14 03:34:14;;;;;;;4.33;2.47;;;6.80;99.90;;;;;;4171883;28;20547;-73
2023/04/14 03:36:17;;;;;;;5.37;2.73;;;6.90;99.90;;;;;;4172389;28;20465;-74
2023/04/14 03:38:22;;;;;;;4.50;2.93;;;6.80;99.90;;;;;;4180499;28;21281;-73
2023/04/14 03:40:29;;;;;;;5.27;3.03;;;6.80;99.90;;;;;;4176132;28;20445;-74
2023/04/14 03:42:32;;;;;;;4.00;2.60;;;6.80;99.90;;;;;;4177201;28;20511;-73
2023/04/14 03:44:37;;;;;;;3.93;2.93;;;6.80;99.90;;;;;;4169993;28;21105;-73
2023/04/14 03:46:39;;;;;;;4.37;2.70;;;6.80;99.90;;;;;;4176736;28;20456;-73
2023/04/14 03:48:43;;;;;;;5.23;3.07;;;6.80;99.90;;;;;;4175329;28;21050;-71
2023/04/14 03:50:46;;;;;;;5.13;2.97;;;6.80;99.90;;;;;;4174905;28;20853;-73
2023/04/14 03:52:50;;;;;;;4.37;2.80;;;6.80;99.90;;;;;;4179095;28;20556;-73
2023/04/14 03:54:55;;;;;;;4.23;2.83;;;6.80;99.90;;;;;;4184920;28;20435;-73
2023/04/14 03:56:59;;;;;;;5.13;3.10;;;6.80;99.90;;;;;;4178837;28;20544;-73
2023/04/14 03:59:02;;;;;;;6.57;3.17;;;6.70;99.90;;;;;;4171015;28;20532;-73
2023/04/14 04:01:06;;;;;;;7.27;3.37;;;6.80;99.90;;;;;;4170923;28;20464;-73
2023/04/14 04:03:09;;;;;;;4.97;3.00;;;6.70;99.90;;;;;;4176137;28;20875;-73
2023/04/14 04:05:12;;;;;;;4.93;2.73;;;6.70;99.90;;;;;;4175754;28;20928;-74
2023/04/14 04:07:16;;;;;;;6.17;3.20;;;6.70;99.90;;;;;;4175745;28;20479;-73
2023/04/14 04:09:21;;;;;;;4.50;3.20;;;6.70;99.90;;;;;;4177531;28;20548;-74
2023/04/14 04:11:26;;;;;;;5.40;3.30;;;6.70;99.90;;;;;;4173393;28;20477;-74
2023/04/14 04:13:29;;;;;;;4.80;3.03;;;6.70;99.90;;;;;;4181299;28;20453;-73
2023/04/14 04:15:32;;;;;;;4.87;3.23;;;6.70;99.90;;;;;;4180138;28;20476;-73
2023/04/14 04:17:38;;;;;;;4.13;2.97;;;6.70;99.90;;;;;;4175694;28;20552;-73
2023/04/14 04:19:42;;;;;;;5.57;3.27;;;6.70;99.90;;;;;;4174566;28;20499;-74
2023/04/14 04:21:46;;;;;;;4.73;3.10;;;6.70;99.90;;;;;;4176484;28;20567;-73
2023/04/14 04:23:52;;;;;;;5.67;2.93;;;6.70;99.90;;;;;;4170171;28;21082;-73
2023/04/14 04:25:55;;;;;;;5.90;3.00;;;6.70;99.90;;;;;;4172832;28;20457;-74
2023/04/14 04:27:57;;;;;;;4.23;2.80;;;6.70;99.90;;;;;;4171860;28;20491;-73
2023/04/14 04:30:00;;;;;;;4.03;3.00;;;6.70;99.90;;;;;;4174727;28;20454;-73
2023/04/14 04:32:02;;;;;;;6.60;3.40;;;6.70;99.90;;;;;;4177166;28;20550;-73
2023/04/14 04:34:06;;;;;;;7.77;4.00;;;6.60;99.90;;;;;;4175667;28;20462;-73
2023/04/14 04:36:08;;;;;;;5.70;3.60;;;6.70;99.90;;;;;;4171787;28;20547;-73
2023/04/14 04:38:11;;;;;;;6.63;3.73;;;6.70;99.90;;;;;;4174862;28;20476;-74
2023/04/14 04:40:13;;;;;;;6.37;3.87;;;6.70;99.90;;;;;;4173589;28;20544;-73
2023/04/14 04:42:15;;;;;;;8.23;3.93;;;6.70;99.90;;;;;;4174104;28;20480;-73
2023/04/14 04:44:17;;;;;;;8.07;3.50;;;6.60;99.90;;;;;;4173197;28;20981;-74
2023/04/14 04:46:40;;;;;;;4.93;3.47;;;6.60;99.90;;;;;;4169614;28;20451;-73
2023/04/14 04:48:42;;;;;;;5.70;3.57;;;6.70;99.90;;;;;;4176529;28;20500;-73
2023/04/14 04:50:45;;;;;;;6.13;3.80;;;6.60;99.90;;;;;;4175618;28;20510;-73
2023/04/14 04:52:47;;;;;;;7.30;4.10;;;6.70;99.90;;;;;;4173572;28;20484;-74
2023/04/14 04:54:51;;;;;;;5.90;3.93;;;6.70;99.90;;;;;;4175608;28;20498;-73
2023/04/14 04:56:53;;;;;;;9.63;4.80;;;6.70;99.90;;;;;;4178884;28;20459;-73
2023/04/14 04:58:55;;;;;;;6.87;4.40;;;6.70;99.90;;;;;;4181119;28;20483;-74
2023/04/14 05:00:57;;;;;;;6.60;4.33;;;6.70;99.90;;;;;;4182794;28;20461;-73
2023/04/14 05:02:58;;;;;;;8.47;3.73;;;6.70;99.90;;;;;;4173727;28;20495;-73
2023/04/14 05:05:00;;;;;;;7.00;4.37;;;6.70;99.90;;;;;;4170905;28;20464;-74
2023/04/14 05:07:04;;;;;;;6.27;4.10;;;6.70;99.90;;;;;;4173098;28;20862;-73
2023/04/14 05:09:06;;;;;;;8.47;4.57;;;6.70;99.90;;;;;;4180926;28;20457;-74
2023/04/14 05:11:08;;;;;;;7.33;4.23;;;6.80;99.90;;;;;;4174552;28;20513;-74
2023/04/14 05:13:10;;;;;;;7.73;4.40;;;6.70;99.90;;;;;;4174936;28;20490;-73
2023/04/14 05:15:12;;;;;;;7.10;3.80;;;6.70;99.90;;;;;;4169663;28;20858;-74
2023/04/14 05:17:14;;;;;;;8.10;3.70;;;6.80;99.90;;;;;;4171869;28;20454;-73
2023/04/14 05:19:16;;;;;;;6.50;3.83;;;6.80;99.90;;;;;;4179310;28;20459;-74
2023/04/14 05:21:18;;;;;;;7.53;4.37;;;6.80;99.90;;;;;;4172151;28;20456;-73
2023/04/14 05:23:21;;;;;;;6.70;3.70;;;6.80;99.90;;;;;;4177193;28;20453;-73
2023/04/14 05:25:23;;;;;;;5.90;3.50;;;6.80;99.90;;;;;;4178996;28;20457;-74
2023/04/14 05:27:25;;;;;;;7.03;4.00;;;6.80;99.90;;;;;;4178472;28;20504;-74
2023/04/14 05:29:27;;;;;;;8.73;4.17;;;6.80;99.90;;;;;;4176468;28;20499;-73
2023/04/14 05:31:29;;;;;;;5.83;4.13;;;6.80;99.90;;;;;;4176675;28;20476;-73
2023/04/14 05:33:31;;;;;;;6.87;4.27;;;6.80;99.90;;;;;;4178334;28;20496;-73
2023/04/14 05:35:33;;;;;;;6.70;3.73;;;6.90;99.90;;;;;;4177266;28;20445;-73
2023/04/14 05:37:35;;;;;;;8.20;4.33;;;6.90;99.90;;;;;;4180931;28;20511;-73
2023/04/14 05:39:38;;;;;;;20.57;7.57;;;6.90;99.90;;;;;;4177269;28;20535;-73
2023/04/14 05:41:40;;;;;;;22.23;7.33;;;6.90;99.90;;;;;;4174132;28;20492;-73
2023/04/14 05:43:42;;;;;;;22.67;7.43;;;6.90;99.90;;;;;;4174729;28;20468;-73
2023/04/14 05:45:45;;;;;;;22.70;7.30;;;6.90;99.90;;;;;;4178592;28;20453;-73
2023/04/14 05:47:47;;;;;;;21.23;6.70;;;6.90;99.90;;;;;;4176291;28;20470;-74
2023/04/14 05:49:49;;;;;;;16.53;6.00;;;7.00;99.90;;;;;;4178058;28;21057;-74
2023/04/14 05:51:54;;;;;;;12.63;5.10;;;7.00;99.90;;;;;;4178149;28;20486;-74
2023/04/14 05:53:56;;;;;;;12.53;4.83;;;7.00;99.90;;;;;;4173951;28;20473;-74
2023/04/14 05:55:59;;;;;;;9.20;4.27;;;7.00;99.90;;;;;;4174367;28;20448;-74
2023/04/14 05:58:01;;;;;;;8.93;4.10;;;7.00;99.90;;;;;;4174404;28;20223;-73
2023/04/14 06:00:05;;;;;;;6.13;3.80;;;7.00;99.90;;;;;;4171090;28;20872;-73
2023/04/14 06:02:06;;;;;;;6.70;4.37;;;7.10;99.90;;;;;;4179867;28;20456;-73
2023/04/14 06:04:09;;;;;;;6.60;3.90;;;7.10;99.90;;;;;;4178887;28;20449;-73
2023/04/14 06:06:11;;;;;;;6.47;4.30;;;7.10;99.90;;;;;;4174776;28;20433;-73
2023/04/14 06:08:18;;;;;;;5.60;3.63;;;7.10;99.90;;;;;;4176296;28;20479;-73
2023/04/14 06:10:20;;;;;;;5.90;3.83;;;7.10;99.90;;;;;;4172008;28;20548;-73
2023/04/14 06:12:28;;;;;;;5.57;3.47;;;7.20;99.90;;;;;;4178166;28;20489;-73
2023/04/14 06:14:31;;;;;;;5.00;3.20;;;7.20;99.90;;;;;;4181080;28;20456;-73
2023/04/14 06:16:35;;;;;;;7.50;3.67;;;7.20;99.90;;;;;;4178718;28;20448;-75
2023/04/14 06:18:37;;;;;;;6.73;3.67;;;7.20;99.90;;;;;;4177350;28;20475;-76
2023/04/14 06:20:39;;;;;;;6.43;3.80;;;7.30;99.90;;;;;;4176607;28;20453;-74
2023/04/14 06:22:44;;;;;;;5.43;3.60;;;7.30;99.90;;;;;;4179473;28;20538;-75
2023/04/14 06:24:48;;;;;;;5.20;3.50;;;7.30;99.90;;;;;;4170044;28;20869;-78
2023/04/14 06:26:52;;;;;;;5.87;3.40;;;7.30;99.90;;;;;;4174764;28;20457;-75
2023/04/14 06:28:56;;;;;;;7.63;4.10;;;7.40;99.90;;;;;;4174993;28;20507;-75
2023/04/14 06:31:00;;;;;;;6.70;3.60;;;7.40;99.90;;;;;;4182090;28;20455;-74
2023/04/14 06:33:03;;;;;;;5.47;3.77;;;7.40;99.90;;;;;;4174260;28;20864;-75
2023/04/14 06:35:08;;;;;;;6.10;3.10;;;7.40;99.90;;;;;;4177058;28;20463;-74
2023/04/14 06:37:11;;;;;;;5.47;3.60;;;7.50;99.90;;;;;;4175091;28;20886;-74
2023/04/14 06:39:15;;;;;;;5.27;3.60;;;7.50;99.90;;;;;;4173557;28;20465;-74
2023/04/14 06:41:18;;;;;;;5.63;3.33;;;7.50;99.90;;;;;;4171255;28;20496;-74
2023/04/14 06:43:20;;;;;;;7.73;3.77;;;7.60;99.90;;;;;;4174248;28;20445;-80
2023/04/14 06:45:23;;;;;;;6.60;3.60;;;7.60;99.90;;;;;;4180015;28;20668;-79
2023/04/14 06:47:27;;;;;;;5.87;3.40;;;7.60;99.90;;;;;;4178282;28;20485;-77
2023/04/14 06:49:32;;;;;;;4.63;3.20;;;7.70;99.90;;;;;;4175423;28;20461;-77
2023/04/14 06:51:35;;;;;;;5.73;3.33;;;7.70;99.90;;;;;;4173475;28;20256;-77
2023/04/14 06:53:37;;;;;;;5.63;3.67;;;7.70;99.90;;;;;;4176474;28;20584;-76
2023/04/14 06:55:41;;;;;;;7.03;3.70;;;7.80;99.90;;;;;;4172246;28;21194;-77
2023/04/14 06:57:43;;;;;;;4.07;2.87;;;7.80;99.90;;;;;;4174052;28;20222;-77
2023/04/14 06:59:45;;;;;;;6.40;4.07;;;7.90;99.90;;;;;;4172651;28;20233;-75
2023/04/14 07:01:48;;;;;;;6.03;3.50;;;7.90;99.90;;;;;;4175539;28;20202;-75
2023/04/14 07:03:50;;;;;;;5.83;3.33;;;7.90;99.90;;;;;;4177037;28;20664;-75
2023/04/14 07:05:52;;;;;;;5.33;3.50;;;8.00;99.90;;;;;;4177299;28;20492;-75
2023/04/14 07:07:54;;;;;;;6.03;3.90;;;8.00;99.90;;;;;;4177703;28;21107;-75
2023/04/14 07:09:57;;;;;;;5.93;3.60;;;8.00;99.90;;;;;;4176363;28;20202;-76
2023/04/14 07:12:00;;;;;;;5.37;3.70;;;8.20;99.90;;;;;;4174841;28;20207;-76
2023/04/14 07:14:02;;;;;;;6.33;3.30;;;8.10;99.90;;;;;;4175978;28;20947;-75
2023/04/14 07:16:05;;;;;;;8.20;3.90;;;8.10;99.90;;;;;;4174972;28;20285;-75
2023/04/14 07:18:08;;;;;;;8.23;3.57;;;8.20;99.90;;;;;;4180456;28;20256;-75
2023/04/14 07:20:11;;;;;;;7.50;4.03;;;8.20;99.90;;;;;;4172780;28;20462;-76
2023/04/14 07:22:18;;;;;;;6.23;3.67;;;8.30;99.90;;;;;;4179721;28;20194;-76
2023/04/14 07:24:20;;;;;;;6.20;4.03;;;8.30;99.90;;;;;;4175790;28;20611;-77
2023/04/14 07:26:24;;;;;;;7.57;3.97;;;8.30;99.90;;;;;;4174259;28;20569;-76
2023/04/14 07:28:31;;;;;;;5.93;3.53;;;8.30;99.90;;;;;;4171956;28;20219;-76
2023/04/14 07:30:37;;;;;;;8.73;4.23;;;8.30;99.90;;;;;;4174383;28;20238;-77
2023/04/14 07:32:39;;;;;;;7.73;4.20;;;8.30;99.90;;;;;;4176092;28;20230;-76
2023/04/14 07:34:48;;;;;;;5.80;3.77;;;8.40;99.90;;;;;;4176215;28;20211;-76
2023/04/14 07:36:50;;;;;;;6.43;3.67;;;8.40;99.90;;;;;;4177063;28;20202;-75
2023/04/14 07:38:52;;;;;;;8.43;3.70;;;8.40;99.90;;;;;;4173774;28;20232;-75
2023/04/14 07:40:55;;;;;;;5.80;3.60;;;8.40;99.90;;;;;;4171528;28;20627;-75
2023/04/14 07:42:57;;;;;;;7.03;3.80;;;8.50;99.90;;;;;;4172653;28;20203;-75
2023/04/14 07:44:59;;;;;;;7.27;3.97;;;8.50;99.90;;;;;;4176201;28;20238;-75
2023/04/14 07:47:03;;;;;;;5.33;3.57;;;8.50;99.90;;;;;;4172451;28;20191;-75
2023/04/14 07:49:11;;;;;;;6.10;3.40;;;8.50;99.90;;;;;;4169580;28;20246;-75
2023/04/14 07:51:14;;;;;;;4.90;3.50;;;8.60;99.90;;;;;;4168008;28;20242;-75
2023/04/14 07:53:16;;;;;;;7.27;3.50;;;8.60;99.90;;;;;;4173103;28;20306;-75
2023/04/14 07:55:22;;;;;;;6.10;3.40;;;8.60;99.90;;;;;;4170260;28;20235;-75
2023/04/14 07:57:27;;;;;;;7.40;3.87;;;8.60;99.90;;;;;;4165876;28;20314;-75
2023/04/14 07:59:30;;;;;;;6.10;3.20;;;8.70;99.90;;;;;;4171526;28;20674;-75
2023/04/14 08:01:32;;;;;;;8.90;3.90;;;8.70;99.90;;;;;;4172493;28;20227;-75
2023/04/14 08:03:36;;;;;;;4.80;3.30;;;8.70;99.90;;;;;;4172014;28;20234;-74
2023/04/14 08:05:38;;;;;;;5.03;3.47;;;8.70;99.90;;;;;;4175453;28;20247;-74
2023/04/14 08:07:41;;;;;;;4.37;2.97;;;8.70;99.90;;;;;;4172667;28;20746;-74
2023/04/14 08:09:43;;;;;;;4.83;3.10;;;8.80;99.90;;;;;;4171236;28;20657;-74
2023/04/14 08:11:49;;;;;;;5.10;3.30;;;8.80;99.90;;;;;;4177860;28;20216;-73
2023/04/14 08:13:51;;;;;;;3.73;2.70;;;8.80;99.90;;;;;;4176596;28;20728;-73
2023/04/14 08:15:55;;;;;;;4.40;2.90;;;8.90;99.90;;;;;;4179421;28;20199;-73
2023/04/14 08:17:57;;;;;;;4.97;3.03;;;8.90;99.90;;;;;;4173479;28;20254;-73
2023/04/14 08:19:59;;;;;;;6.17;3.03;;;8.90;99.90;;;;;;4176974;28;20581;-73
2023/04/14 08:22:02;;;;;;;5.13;2.43;;;9.00;99.90;;;;;;4174397;28;20208;-73
2023/04/14 08:24:06;;;;;;;4.17;2.60;;;9.10;99.90;;;;;;4172916;28;20257;-73
2023/04/14 08:26:08;;;;;;;4.97;2.60;;;9.10;99.90;;;;;;4174725;28;20196;-73
2023/04/14 08:28:10;;;;;;;3.60;2.60;;;9.10;99.90;;;;;;4173871;28;20630;-73
2023/04/14 08:30:12;;;;;;;4.37;2.57;;;9.10;99.90;;;;;;4175368;28;20225;-73
2023/04/14 08:32:14;;;;;;;6.17;3.07;;;9.20;99.90;;;;;;4173028;28;20292;-74
2023/04/14 08:34:16;;;;;;;4.87;2.90;;;9.30;99.90;;;;;;4175580;28;20229;-74
2023/04/14 08:36:18;;;;;;;4.97;2.43;;;9.30;99.90;;;;;;4174799;28;20704;-74
2023/04/14 08:38:20;;;;;;;4.23;2.70;;;9.30;99.90;;;;;;4174027;28;20253;-75
2023/04/14 08:40:29;;;;;;;3.63;2.40;;;9.40;99.90;;;;;;4168591;28;20295;-75
2023/04/14 08:42:31;;;;;;;5.67;2.60;;;9.50;99.90;;;;;;4177918;28;20302;-74
2023/04/14 08:44:33;;;;;;;5.57;2.47;;;9.50;99.90;;;;;;4166942;28;20216;-75
2023/04/14 08:46:35;;;;;;;5.03;2.70;;;9.50;99.90;;;;;;4171090;28;20303;-73
2023/04/14 08:48:39;;;;;;;4.53;2.70;;;9.50;99.90;;;;;;4176356;28;20248;-73
2023/04/14 08:50:55;;;;;;;5.60;2.83;;;9.60;99.90;;;;;;4175152;28;20611;-74
2023/04/14 08:53:00;;;;;;;6.47;2.67;;;9.60;99.90;;;;;;4173103;28;20230;-75
2023/04/14 08:55:03;;;;;;;4.27;2.50;;;9.60;99.90;;;;;;4171453;28;21005;-74
2023/04/14 08:57:09;;;;;;;4.33;2.57;;;9.60;99.90;;;;;;4175339;28;20675;-75
2023/04/14 08:59:11;;;;;;;6.27;2.77;;;9.70;99.90;;;;;;4186611;28;20205;-75
2023/04/14 09:01:14;;;;;;;4.70;2.93;;;9.70;99.90;;;;;;4173078;28;20216;-75
2023/04/14 09:03:16;;;;;;;4.93;2.53;;;9.70;99.90;;;;;;4173737;28;20202;-75
2023/04/14 09:05:19;;;;;;;6.83;2.70;;;9.80;99.90;;;;;;4174667;28;20216;-75
2023/04/14 09:07:21;;;;;;;5.90;3.40;;;9.80;99.90;;;;;;4176297;28;20704;-75
2023/04/14 09:09:23;;;;;;;6.30;3.00;;;9.80;99.90;;;;;;4176885;28;20643;-75
2023/04/14 09:11:25;;;;;;;6.23;3.00;;;9.90;99.90;;;;;;4177744;28;20292;-75
2023/04/14 09:13:29;;;;;;;6.13;2.90;;;9.90;99.90;;;;;;4177455;28;20276;-76
2023/04/14 09:15:31;;;;;;;6.00;3.00;;;10.00;99.90;;;;;;4188017;28;20256;-75
2023/04/14 09:17:35;;;;;;;7.30;3.10;;;10.00;99.90;;;;;;4177916;28;20240;-75
2023/04/14 09:19:37;;;;;;;8.67;3.60;;;10.10;99.90;;;;;;4173640;28;20221;-75
2023/04/14 09:21:42;;;;;;;7.07;3.20;;;10.20;99.90;;;;;;4176877;28;21103;-75
2023/04/14 09:23:47;;;;;;;5.47;3.27;;;10.30;99.90;;;;;;4176760;28;20198;-75
2023/04/14 09:25:49;;;;;;;9.30;3.00;;;10.30;99.90;;;;;;4174983;28;20211;-75
2023/04/14 09:27:52;;;;;;;5.27;2.60;;;10.40;99.90;;;;;;4176852;28;20762;-76
2023/04/14 09:29:57;;;;;;;2.87;2.33;;;10.40;99.90;;;;;;4174057;28;20229;-75
2023/04/14 09:32:00;;;;;;;4.50;2.90;;;10.50;99.90;;;;;;4175058;28;20240;-75
2023/04/14 09:34:03;;;;;;;4.37;2.73;;;10.50;99.90;;;;;;4176254;28;20230;-76
2023/04/14 09:36:19;;;;;;;4.80;2.73;;;10.60;99.90;;;;;;4175284;28;20702;-75
2023/04/14 09:38:33;;;;;;;5.83;3.00;;;10.70;99.90;;;;;;4170282;28;20240;-75
2023/04/14 09:40:37;;;;;;;5.53;2.90;;;10.70;99.90;;;;;;4176205;28;20275;-75
2023/04/14 09:42:45;;;;;;;4.27;2.67;;;10.80;99.90;;;;;;4175152;28;20198;-75
2023/04/14 09:44:56;;;;;;;4.73;2.73;;;10.80;99.90;;;;;;4176050;28;20197;-75
2023/04/14 09:47:00;;;;;;;6.40;2.57;;;10.90;99.90;;;;;;4176337;28;21129;-79
2023/04/14 09:49:06;;;;;;;6.00;2.60;;;11.00;99.90;;;;;;4170900;28;20290;-77
2023/04/14 09:51:12;;;;;;;4.80;2.23;;;11.10;99.90;;;;;;4172214;28;20230;-76
2023/04/14 09:53:15;;;;;;;4.10;2.30;;;11.20;99.90;;;;;;4175632;28;20287;-76
2023/04/14 09:55:21;;;;;;;5.97;2.67;;;11.20;99.90;;;;;;4177680;28;20559;-78
2023/04/14 09:57:25;;;;;;;6.23;2.77;;;11.30;99.90;;;;;;4175393;28;21112;-78
2023/04/14 09:59:33;;;;;;;4.20;2.30;;;11.30;99.90;;;;;;4176212;28;20230;-76
2023/04/14 10:01:38;;;;;;;3.47;2.43;;;11.40;99.90;;;;;;4174746;28;20258;-79
2023/04/14 10:03:41;;;;;;;4.17;2.47;;;11.50;99.90;;;;;;4170389;28;20195;-78
2023/04/14 10:05:51;;;;;;;4.70;2.87;;;11.60;99.90;;;;;;4173459;28;20210;-82
2023/04/14 10:08:02;;;;;;;3.83;2.33;;;11.60;99.90;;;;;;4178754;28;20232;-78
2023/04/14 10:10:07;;;;;;;5.50;2.43;;;11.60;99.90;;;;;;4193065;28;20234;-76
2023/04/14 10:12:12;;;;;;;4.83;2.73;;;11.60;99.90;;;;;;4177446;28;20687;-75
2023/04/14 10:14:20;;;;;;;3.73;2.33;;;11.70;99.90;;;;;;4176460;28;20211;-74
2023/04/14 10:16:27;;;;;;;5.77;2.67;;;11.70;99.90;;;;;;4177474;28;20186;-74
2023/04/14 10:18:37;;;;;;;12.37;5.23;;;11.70;99.90;;;;;;4175735;28;20333;-74
2023/04/14 10:20:39;;;;;;;9.67;4.53;;;11.80;99.90;;;;;;4176058;28;20237;-74
2023/04/14 10:22:42;;;;;;;5.33;3.00;;;11.80;99.90;;;;;;4172269;28;20215;-74
2023/04/14 10:24:44;;;;;;;5.30;2.73;;;11.80;99.90;;;;;;4178225;28;20580;-74
2023/04/14 10:26:48;;;;;;;4.07;2.13;;;11.90;99.90;;;;;;4176679;28;20206;-73
2023/04/14 10:28:52;;;;;;;3.40;2.20;;;11.80;99.90;;;;;;4176740;28;20263;-73
2023/04/14 10:30:56;;;;;;;5.53;2.47;;;11.80;99.90;;;;;;4178175;28;20352;-73
2023/04/14 10:32:58;;;;;;;4.20;2.30;;;11.80;99.90;;;;;;4173908;28;20207;-72
2023/04/14 10:35:05;;;;;;;6.10;2.40;;;11.70;99.90;;;;;;4177593;28;20313;-73
2023/04/14 10:37:13;;;;;;;4.00;2.10;;;11.60;99.90;;;;;;4174548;28;20210;-73
2023/04/14 10:39:21;;;;;;;3.70;2.07;;;11.50;99.90;;;;;;4171012;28;20390;-74
2023/04/14 10:41:24;;;;;;;5.03;2.50;;;11.50;99.90;;;;;;4179055;28;20215;-72
2023/04/14 10:43:28;;;;;;;5.57;2.60;;;11.40;99.90;;;;;;4174471;28;20225;-72
2023/04/14 10:45:30;;;;;;;5.57;2.57;;;11.40;99.90;;;;;;4172167;28;20613;-73
2023/04/14 10:47:34;;;;;;;3.50;2.23;;;11.30;99.90;;;;;;4173328;28;20250;-73
2023/04/14 10:49:37;;;;;;;4.57;2.70;;;11.40;99.90;;;;;;4174891;28;20209;-73
2023/04/14 10:51:41;;;;;;;6.77;2.90;;;11.40;99.90;;;;;;4173923;28;20999;-73
2023/04/14 10:53:45;;;;;;;5.13;2.67;;;11.40;99.90;;;;;;4176317;28;20232;-72